Time;durP1;ratioP1;P1;durP2;ratioP2;P2;SDS_P1;SDS_P2;PMS_P1;PMS_P2;Temp;Humidity;BMP_temperature;BMP_pressure;BME280_temperature;BME280_humidity;BME280_pressure;Samples;Min_cycle;Max_cycle;Signal;HPM_P1;HPM_P2
2021/01/18 00:00:20;;;;;;;20.13;9.60;;;;;;;-11.53;56.45;100653.66;1759293;79;21294;-38
2021/01/18 00:02:47;;;;;;;22.32;9.23;;;;;;;-11.56;56.58;100664.73;1807619;77;21172;-36
2021/01/18 00:05:15;;;;;;;18.60;9.30;;;;;;;-11.56;56.67;100667.72;1767559;80;21166;-37
2021/01/18 00:07:50;;;;;;;17.67;9.00;;;;;;;-11.57;56.67;100668.11;1791956;78;21701;-37
2021/01/18 00:10:24;;;;;;;15.90;8.17;;;;;;;-11.59;56.58;100669.78;1789223;78;21628;-36
2021/01/18 00:12:53;;;;;;;15.20;7.33;;;;;;;-11.58;56.62;100670.65;1778057;78;21168;-38
2021/01/18 00:15:23;;;;;;;17.17;8.10;;;;;;;-11.59;56.70;100681.37;1793418;79;21588;-37
2021/01/18 00:17:51;;;;;;;17.82;8.70;;;;;;;-11.60;56.60;100689.89;1760917;80;21176;-37
2021/01/18 00:20:21;;;;;;;16.07;8.03;;;;;;;-11.61;56.54;100688.16;1765694;80;21173;-36
2021/01/18 00:22:49;;;;;;;15.43;8.40;;;;;;;-11.61;56.45;100688.16;1759792;79;21181;-37
2021/01/18 00:25:21;;;;;;;19.33;8.77;;;;;;;-11.61;56.47;100689.44;1772360;79;21204;-36
2021/01/18 00:27:49;;;;;;;18.47;8.23;;;;;;;-11.59;56.50;100690.77;1774695;79;21157;-36
2021/01/18 00:30:21;;;;;;;18.30;8.97;;;;;;;-11.60;56.05;100686.45;1772831;79;21156;-36
2021/01/18 00:32:50;;;;;;;17.63;8.47;;;;;;;-11.67;55.78;100690.92;1780363;79;21187;-36
2021/01/18 00:35:20;;;;;;;14.23;8.30;;;;;;;-11.75;55.84;100690.66;1777177;79;21640;-37
2021/01/18 00:37:49;;;;;;;17.97;9.67;;;;;;;-11.77;55.99;100689.34;1765532;79;21143;-37
2021/01/18 00:40:21;;;;;;;18.13;8.93;;;;;;;-11.77;56.19;100687.15;1775928;79;21168;-37
2021/01/18 00:42:48;;;;;;;15.53;8.53;;;;;;;-11.74;56.21;100688.56;1782698;79;21190;-36
2021/01/18 00:45:18;;;;;;;17.67;8.30;;;;;;;-11.73;55.90;100678.72;1775834;79;21160;-36
2021/01/18 00:47:54;;;;;;;17.57;8.20;;;;;;;-11.74;55.79;100681.23;1776680;78;21163;-37
2021/01/18 00:50:24;;;;;;;16.37;8.83;;;;;;;-11.77;55.89;100682.91;1771063;79;21588;-37
2021/01/18 00:52:55;;;;;;;18.70;10.43;;;;;;;-11.78;55.77;100675.98;1778944;79;21596;-36
2021/01/18 00:55:23;;;;;;;17.85;9.00;;;;;;;-11.87;55.53;100673.11;1760024;78;21212;-37
2021/01/18 00:57:58;;;;;;;17.43;8.27;;;;;;;-11.99;55.51;100668.85;1781511;78;21159;-37
2021/01/18 01:00:27;;;;;;;17.27;9.67;;;;;;;-12.07;55.50;100676.30;1769217;79;21150;-38
2021/01/18 01:02:57;;;;;;;12.15;6.30;;;;;;;-12.09;55.68;100671.92;1770316;78;21168;-37
2021/01/18 01:05:27;;;;;;;18.47;9.60;;;;;;;-12.10;55.81;100675.30;1768865;79;21180;-38
2021/01/18 01:07:57;;;;;;;19.97;10.10;;;;;;;-12.12;55.84;100676.55;1776807;79;21180;-37
2021/01/18 01:10:32;;;;;;;19.90;9.30;;;;;;;-12.11;55.79;100676.12;1773060;78;21637;-37
2021/01/18 01:13:04;;;;;;;22.23;8.43;;;;;;;-12.13;55.83;100681.63;1768423;78;21148;-35
2021/01/18 01:15:58;;;;;;;19.73;9.33;;;;;;;-12.11;55.52;100669.70;1796865;78;23351;-36
2021/01/18 01:18:27;;;;;;;17.10;7.70;;;;;;;-12.24;55.17;100672.24;1769392;79;21120;-36
2021/01/18 01:20:54;;;;;;;14.30;8.57;;;;;;;-12.37;55.14;100672.59;1785651;79;21925;-35
2021/01/18 01:23:22;;;;;;;17.73;8.83;;;;;;;-12.51;55.12;100667.82;1736817;81;21236;-36
2021/01/18 01:25:50;;;;;;;18.17;10.13;;;;;;;-12.67;55.30;100667.66;1699222;83;21160;-36
2021/01/18 01:28:17;;;;;;;19.07;9.60;;;;;;;-12.81;55.45;100675.66;1717528;82;21173;-36
2021/01/18 01:30:45;;;;;;;18.43;9.10;;;;;;;-12.92;55.71;100678.69;1708196;82;21188;-36
2021/01/18 01:33:13;;;;;;;17.27;8.97;;;;;;;-13.02;55.90;100681.71;1710166;82;21600;-36
2021/01/18 01:35:40;;;;;;;18.03;9.40;;;;;;;-13.15;56.15;100682.02;1716726;82;21136;-36
2021/01/18 01:38:08;;;;;;;18.43;9.70;;;;;;;-13.24;56.29;100676.12;1721162;82;21568;-37
2021/01/18 01:40:36;;;;;;;19.23;9.50;;;;;;;-13.32;56.45;100682.67;1699852;82;21188;-37
2021/01/18 01:43:07;;;;;;;17.10;9.83;;;;;;;-13.43;56.68;100676.21;1710587;82;21144;-37
2021/01/18 01:45:35;;;;;;;19.20;9.65;;;;;;;-13.41;56.81;100683.57;1714805;82;21708;-35
2021/01/18 01:48:03;;;;;;;18.90;8.47;;;;;;;-13.43;56.95;100671.98;1719509;82;21178;-36
2021/01/18 01:50:32;;;;;;;19.13;10.10;;;;;;;-13.44;56.89;100679.19;1711499;82;21205;-35
2021/01/18 01:53:28;;;;;;;20.60;9.77;;;;;;;-13.47;56.89;100672.66;1714785;82;21185;-35
2021/01/18 01:55:56;;;;;;;23.67;10.40;;;;;;;-13.48;56.93;100670.02;1720854;82;21176;-35
2021/01/18 01:58:24;;;;;;;19.27;10.23;;;;;;;-13.52;56.98;100671.59;1745017;80;21252;-35
2021/01/18 02:00:52;;;;;;;20.20;9.73;;;;;;;-13.53;57.03;100671.10;1723380;83;21185;-35
2021/01/18 02:03:41;;;;;;;19.33;9.53;;;;;;;-13.54;57.02;100673.21;1703503;81;21581;-35
2021/01/18 02:06:09;;;;;;;15.87;10.13;;;;;;;-13.57;57.08;100669.24;1714928;82;21173;-34
2021/01/18 02:08:37;;;;;;;20.50;9.50;;;;;;;-13.68;57.21;100664.05;1720688;82;21160;-35
2021/01/18 02:11:06;;;;;;;17.13;8.70;;;;;;;-13.79;57.37;100672.17;1718270;82;21633;-35
2021/01/18 02:14:03;;;;;;;18.83;9.20;;;;;;;-13.87;57.45;100674.83;1717777;81;21978;-35
2021/01/18 02:16:46;;;;;;;17.63;9.40;;;;;;;-13.89;57.58;100669.16;1717297;81;21221;-36
2021/01/18 02:19:41;;;;;;;18.37;9.07;;;;;;;-13.92;57.74;100681.45;1726045;81;21133;-36
2021/01/18 02:22:34;;;;;;;17.77;8.37;;;;;;;-13.93;57.87;100684.84;1710514;81;21532;-36
2021/01/18 02:25:15;;;;;;;18.03;9.57;;;;;;;-13.89;57.98;100674.30;1739035;80;21134;-36
2021/01/18 02:28:18;;;;;;;20.67;8.80;;;;;;;-13.89;58.08;100667.87;1745163;81;21153;-36
2021/01/18 02:31:20;;;;;;;17.00;8.93;;;;;;;-13.85;58.18;100665.52;1736763;80;21605;-35
2021/01/18 02:34:36;;;;;;;19.90;9.43;;;;;;;-13.81;58.21;100667.37;1739681;81;21172;-36
2021/01/18 02:37:15;;;;;;;16.67;9.30;;;;;;;-13.74;58.23;100669.39;1725259;81;21181;-35
2021/01/18 02:40:09;;;;;;;20.27;10.00;;;;;;;-13.68;58.32;100673.03;1710204;82;21137;-35
2021/01/18 02:42:41;;;;;;;19.83;10.73;;;;;;;-13.62;58.32;100676.74;1707602;82;21594;-36
2021/01/18 02:45:10;;;;;;;19.63;10.60;;;;;;;-13.61;58.20;100679.77;1753989;80;21165;-36
2021/01/18 02:47:37;;;;;;;19.37;9.23;;;;;;;-13.59;58.21;100680.71;1717828;81;21719;-36
2021/01/18 02:50:06;;;;;;;23.00;9.47;;;;;;;-13.53;58.14;100684.83;1748386;81;21577;-36
2021/01/18 02:52:40;;;;;;;29.47;13.97;;;;;;;-13.44;58.15;100689.87;1731252;81;21849;-36
2021/01/18 02:55:09;;;;;;;35.23;16.57;;;;;;;-13.37;57.88;100686.33;1715485;82;21125;-36
2021/01/18 02:57:39;;;;;;;41.40;18.87;;;;;;;-13.37;57.50;100678.63;1720553;81;21565;-36
2021/01/18 03:00:15;;;;;;;42.83;17.83;;;;;;;-13.43;57.30;100687.38;1726607;81;21541;-36
2021/01/18 03:03:13;;;;;;;41.83;17.00;;;;;;;-13.47;57.20;100691.91;1702073;83;21144;-36
2021/01/18 03:05:54;;;;;;;39.40;17.00;;;;;;;-13.52;57.09;100692.98;1703260;82;21196;-37
2021/01/18 03:08:36;;;;;;;38.33;16.37;;;;;;;-13.57;57.07;100695.77;1692090;83;21204;-36
2021/01/18 03:11:11;;;;;;;36.60;14.17;;;;;;;-13.61;57.10;100696.45;1703623;83;21677;-36
2021/01/18 03:14:05;;;;;;;32.73;13.33;;;;;;;-13.62;57.11;100697.27;1695366;82;21538;-36
2021/01/18 03:16:36;;;;;;;36.53;14.13;;;;;;;-13.56;57.16;100695.36;1717050;81;21178;-36
2021/01/18 03:19:04;;;;;;;35.97;14.87;;;;;;;-13.51;56.92;100694.73;1713778;81;21194;-37
2021/01/18 03:21:32;;;;;;;35.43;14.33;;;;;;;-13.46;56.65;100692.36;1734342;81;21188;-36
2021/01/18 03:23:59;;;;;;;30.90;14.27;;;;;;;-13.46;56.53;100697.91;1722268;81;21530;-36
2021/01/18 03:26:27;;;;;;;37.60;15.57;;;;;;;-13.48;56.51;100702.09;1720059;81;21162;-36
2021/01/18 03:28:54;;;;;;;46.73;17.97;;;;;;;-13.45;56.55;100699.64;1738167;80;21189;-36
2021/01/18 03:31:22;;;;;;;40.00;17.53;;;;;;;-13.43;56.37;100695.08;1742880;81;21149;-36
2021/01/18 03:33:50;;;;;;;43.20;20.47;;;;;;;-13.47;56.19;100694.47;1704936;81;21158;-36
2021/01/18 03:36:17;;;;;;;48.47;22.47;;;;;;;-13.53;56.20;100689.06;1701395;81;21961;-37
2021/01/18 03:38:45;;;;;;;50.83;23.47;;;;;;;-13.55;56.25;100688.16;1700436;82;21159;-35
2021/01/18 03:41:13;;;;;;;60.67;23.80;;;;;;;-13.57;56.21;100694.91;1717583;81;21184;-35
2021/01/18 03:43:41;;;;;;;54.83;24.07;;;;;;;-13.57;56.27;100696.19;1707091;83;22250;-35
2021/01/18 03:46:09;;;;;;;67.07;29.17;;;;;;;-13.55;56.35;100699.70;1693350;81;21190;-35
2021/01/18 03:48:37;;;;;;;64.73;27.43;;;;;;;-13.52;56.18;100703.67;1714300;81;21221;-35
2021/01/18 03:51:05;;;;;;;60.73;25.73;;;;;;;-13.48;56.14;100704.66;1715752;82;21162;-34
2021/01/18 03:53:32;;;;;;;65.33;29.77;;;;;;;-13.49;56.05;100695.22;1740740;80;21197;-35
2021/01/18 03:56:00;;;;;;;56.00;27.80;;;;;;;-13.51;55.88;100697.71;1731672;80;21236;-35
2021/01/18 03:58:28;;;;;;;46.83;23.60;;;;;;;-13.56;55.77;100697.52;1729633;80;21169;-35
2021/01/18 04:00:55;;;;;;;49.73;24.17;;;;;;;-13.56;55.71;100700.49;1735507;80;21461;-37
2021/01/18 04:03:23;;;;;;;47.00;22.60;;;;;;;-13.57;55.55;100695.77;1724352;81;21170;-36
2021/01/18 04:05:51;;;;;;;43.60;24.77;;;;;;;-13.58;55.38;100689.28;1709251;82;21174;-36
2021/01/18 04:08:18;;;;;;;39.57;20.53;;;;;;;-13.67;55.20;100687.63;1713118;82;21148;-37
2021/01/18 04:10:46;;;;;;;41.47;21.57;;;;;;;-13.77;55.26;100689.80;1707071;81;21169;-36
2021/01/18 04:13:13;;;;;;;38.60;20.80;;;;;;;-13.84;55.19;100701.02;1709743;81;21148;-35
2021/01/18 04:15:41;;;;;;;37.73;18.27;;;;;;;-13.92;55.09;100697.25;1748152;80;21700;-36
2021/01/18 04:18:09;;;;;;;42.23;19.83;;;;;;;-14.02;55.18;100694.27;1728521;81;21180;-35
2021/01/18 04:20:37;;;;;;;40.80;17.60;;;;;;;-14.07;55.29;100699.61;1738031;80;21172;-35
2021/01/18 04:23:05;;;;;;;40.97;19.10;;;;;;;-14.08;55.37;100702.13;1705960;82;21188;-36
2021/01/18 04:25:32;;;;;;;34.10;17.27;;;;;;;-14.12;55.42;100706.63;1718818;81;21643;-36
2021/01/18 04:28:02;;;;;;;30.83;16.27;;;;;;;-14.21;55.48;100707.98;1718560;81;21158;-36
2021/01/18 04:30:35;;;;;;;43.27;17.80;;;;;;;-14.28;55.68;100712.77;1718209;82;21185;-36
2021/01/18 04:33:08;;;;;;;30.30;14.90;;;;;;;-14.35;55.75;100713.30;1742483;80;21592;-35
2021/01/18 04:35:39;;;;;;;31.43;13.90;;;;;;;-14.44;55.95;100711.18;1704504;82;21789;-35
2021/01/18 04:38:06;;;;;;;32.20;15.25;;;;;;;-14.50;56.08;100710.91;1740901;80;21614;-37
2021/01/18 04:40:35;;;;;;;31.00;15.20;;;;;;;-14.52;56.23;100710.83;1736888;81;21527;-36
2021/01/18 04:43:03;;;;;;;34.10;13.67;;;;;;;-14.49;56.31;100708.81;1743432;80;21413;-37
2021/01/18 04:45:31;;;;;;;30.97;14.13;;;;;;;-14.49;56.25;100702.00;1722264;81;21149;-37
2021/01/18 04:47:59;;;;;;;28.07;14.00;;;;;;;-14.52;56.30;100713.39;1728732;81;21199;-37
2021/01/18 04:50:28;;;;;;;28.70;15.10;;;;;;;-14.54;56.40;100714.16;1739539;81;21171;-36
2021/01/18 04:53:15;;;;;;;29.05;14.70;;;;;;;-14.56;56.41;100714.49;1698780;83;21189;-35
2021/01/18 04:55:48;;;;;;;34.90;14.90;;;;;;;-14.55;56.43;100719.70;1741260;80;21158;-36
2021/01/18 04:58:17;;;;;;;33.63;16.83;;;;;;;-14.52;56.45;100717.64;1723450;80;21408;-36
2021/01/18 05:00:48;;;;;;;35.80;17.20;;;;;;;-14.50;56.44;100723.31;1738092;81;21177;-35
2021/01/18 05:03:19;;;;;;;37.97;18.07;;;;;;;-14.45;56.45;100727.38;1750253;80;21180;-35
2021/01/18 05:05:56;;;;;;;;;;;;;;;-14.37;56.51;100735.41;1744656;80;21161;-34
2021/01/18 05:09:20;;;;;;;34.73;16.67;;;;;;;-14.34;56.28;100731.70;1741842;81;20179;-35
2021/01/18 05:11:49;;;;;;;39.17;19.20;;;;;;;-14.35;56.07;100732.11;1708804;82;21201;-35
2021/01/18 05:14:16;;;;;;;39.40;19.10;;;;;;;-14.41;56.09;100736.97;1700603;83;21165;-37
2021/01/18 05:16:52;;;;;;;36.27;18.23;;;;;;;-14.44;56.15;100746.64;1748362;81;21145;-36
2021/01/18 05:19:20;;;;;;;41.47;18.80;;;;;;;-14.39;56.27;100753.27;1702529;81;21189;-36
2021/01/18 05:21:48;;;;;;;44.47;19.30;;;;;;;-14.33;56.22;100748.44;1695575;81;21169;-36
2021/01/18 05:24:17;;;;;;;40.60;19.93;;;;;;;-14.27;56.03;100751.68;1730005;81;21675;-35
2021/01/18 05:27:08;;;;;;;45.75;20.55;;;;;;;-14.27;55.76;100749.98;1701423;83;21170;-37
2021/01/18 05:29:37;;;;;;;38.60;19.30;;;;;;;-14.31;55.71;100750.67;1717375;81;21300;-35
2021/01/18 05:32:24;;;;;;;34.40;17.97;;;;;;;-14.38;55.60;100757.61;1719916;82;21177;-35
2021/01/18 05:34:55;;;;;;;31.33;16.17;;;;;;;-14.48;55.73;100759.27;1707210;82;21565;-47
2021/01/18 05:37:22;;;;;;;28.80;14.53;;;;;;;-14.51;55.79;100753.98;1712520;82;21481;-37
2021/01/18 05:39:50;;;;;;;28.93;13.93;;;;;;;-14.51;55.80;100757.45;1709362;81;21204;-42
2021/01/18 05:42:21;;;;;;;35.97;15.37;;;;;;;-14.53;55.77;100765.49;1725697;81;21180;-34
2021/01/18 05:44:48;;;;;;;32.25;14.55;;;;;;;-14.55;55.62;100771.35;1699546;82;21578;-51
2021/01/18 05:47:16;;;;;;;31.33;14.57;;;;;;;-14.67;55.73;100772.92;1695154;81;21154;-36
2021/01/18 05:49:48;;;;;;;27.73;14.53;;;;;;;-14.75;55.88;100776.40;1720422;81;21186;-37
2021/01/18 05:52:30;;;;;;;34.15;16.12;;;;;;;-14.79;55.93;100777.45;1720262;81;21619;-55
2021/01/18 05:55:30;;;;;;;32.07;16.60;;;;;;;-14.85;56.02;100780.61;1696270;81;21160;-35
2021/01/18 05:58:02;;;;;;;34.03;15.80;;;;;;;-14.89;56.14;100787.66;1697648;82;21190;-39
2021/01/18 06:00:36;;;;;;;32.03;14.47;;;;;;;-14.91;56.23;100790.16;1706841;82;21201;-36
2021/01/18 06:03:11;;;;;;;29.77;16.47;;;;;;;-14.91;56.34;100795.69;1701057;83;21185;-34
2021/01/18 06:05:41;;;;;;;33.03;13.27;;;;;;;-14.89;56.37;100797.89;1723152;82;21235;-41
2021/01/18 06:08:16;;;;;;;39.50;15.87;;;;;;;-14.88;56.35;100799.27;1741619;81;21118;-37
2021/01/18 06:10:47;;;;;;;33.63;17.30;;;;;;;-14.86;56.27;100800.63;1738652;80;21165;-40
2021/01/18 06:13:33;;;;;;;33.65;16.17;;;;;;;-14.92;56.34;100800.31;1703806;82;21720;-35
2021/01/18 06:16:11;;;;;;;35.00;15.93;;;;;;;-14.94;56.33;100797.70;1737032;80;21159;-36
2021/01/18 06:18:40;;;;;;;31.23;15.87;;;;;;;-14.99;56.39;100797.88;1682041;83;21160;-37
2021/01/18 06:21:13;;;;;;;34.55;14.25;;;;;;;-15.04;56.52;100801.89;1723121;80;21125;-37
2021/01/18 06:23:49;;;;;;;33.27;15.13;;;;;;;-15.08;56.78;100798.28;1712205;82;21720;-35
2021/01/18 06:26:16;;;;;;;36.37;15.70;;;;;;;-15.12;56.76;100805.33;1712350;82;21193;-36
2021/01/18 06:28:44;;;;;;;32.90;15.63;;;;;;;-15.18;56.96;100798.63;1705143;82;21157;-51
2021/01/18 06:31:12;;;;;;;37.77;15.30;;;;;;;-15.22;57.15;100800.55;1733793;81;22134;-52
2021/01/18 06:33:48;;;;;;;31.73;14.97;;;;;;;-15.27;57.27;100800.72;1710861;82;21193;-51
2021/01/18 06:36:26;;;;;;;30.83;14.80;;;;;;;-15.27;57.53;100808.40;1688275;82;21193;-35
2021/01/18 06:39:02;;;;;;;35.93;15.50;;;;;;;-15.27;57.65;100808.02;1727522;81;21155;-36
2021/01/18 06:41:34;;;;;;;34.93;15.47;;;;;;;-15.27;57.73;100813.14;1713243;81;21885;-35
2021/01/18 06:44:03;;;;;;;30.00;14.90;;;;;;;-15.22;57.71;100819.75;1720126;82;21617;-36
2021/01/18 06:46:36;;;;;;;33.50;15.87;;;;;;;-15.21;57.80;100821.93;1706973;82;21183;-36
2021/01/18 06:49:07;;;;;;;35.27;15.33;;;;;;;-15.18;57.79;100819.11;1709625;82;21183;-36
2021/01/18 06:51:36;;;;;;;36.87;15.80;;;;;;;-15.16;57.90;100821.35;1710251;82;21149;-37
2021/01/18 06:54:04;;;;;;;32.53;15.77;;;;;;;-15.12;58.07;100820.68;1695103;82;21185;-35
2021/01/18 06:57:01;;;;;;;31.87;14.50;;;;;;;-15.02;58.16;100824.98;1697044;82;21200;-35
2021/01/18 06:59:52;;;;;;;33.73;15.10;;;;;;;-14.97;58.16;100824.41;1705628;82;21235;-35
2021/01/18 07:02:29;;;;;;;34.77;15.93;;;;;;;-14.92;58.19;100821.67;1714229;81;21168;-37
2021/01/18 07:05:04;;;;;;;35.23;15.27;;;;;;;-14.91;58.25;100827.70;1712391;82;21158;-37
2021/01/18 07:07:33;;;;;;;32.50;15.47;;;;;;;-14.90;58.32;100827.75;1716110;81;21196;-37
2021/01/18 07:10:07;;;;;;;35.67;17.13;;;;;;;-14.86;58.42;100832.64;1720994;82;21194;-37
2021/01/18 07:12:35;;;;;;;35.87;16.83;;;;;;;-14.80;58.44;100830.77;1736858;81;21180;-36
2021/01/18 07:15:09;;;;;;;34.67;16.87;;;;;;;-14.75;58.52;100833.16;1727874;80;21288;-36
2021/01/18 07:17:51;;;;;;;34.93;16.90;;;;;;;-14.70;58.58;100835.53;1743701;80;21158;-35
2021/01/18 07:20:25;;;;;;;28.97;15.17;;;;;;;-14.65;58.71;100834.95;1735748;80;21172;-36
2021/01/18 07:23:16;;;;;;;36.27;17.20;;;;;;;-14.57;58.71;100842.12;1730884;81;21149;-37
2021/01/18 07:25:47;;;;;;;30.23;16.50;;;;;;;-14.54;58.75;100840.98;1730990;80;21188;-36
2021/01/18 07:28:19;;;;;;;32.60;15.57;;;;;;;-14.52;58.87;100838.06;1731690;80;21279;-35
2021/01/18 07:30:50;;;;;;;35.43;15.07;;;;;;;-14.48;59.12;100839.58;1732231;81;21618;-37
2021/01/18 07:33:19;;;;;;;32.63;15.37;;;;;;;-14.40;59.22;100843.78;1743270;80;21137;-38
2021/01/18 07:35:47;;;;;;;35.67;15.70;;;;;;;-14.34;59.19;100838.93;1742788;80;21205;-35
2021/01/18 07:38:19;;;;;;;28.20;14.83;;;;;;;-14.29;59.30;100835.31;1742008;81;21171;-36
2021/01/18 07:41:11;;;;;;;34.00;15.97;;;;;;;-14.24;59.28;100829.58;1728066;81;21684;-36
2021/01/18 07:43:45;;;;;;;39.83;16.97;;;;;;;-14.19;59.29;100833.23;1733992;81;21203;-35
2021/01/18 07:46:32;;;;;;;32.80;15.00;;;;;;;-14.15;59.41;100835.97;1713510;81;21146;-35
2021/01/18 07:49:27;;;;;;;35.17;17.27;;;;;;;-14.14;59.50;100838.58;1711350;81;21687;-35
2021/01/18 07:52:17;;;;;;;33.43;16.77;;;;;;;-14.08;59.62;100843.14;1738163;80;21180;-37
2021/01/18 07:54:46;;;;;;;36.70;18.55;;;;;;;-14.03;60.09;100843.82;1665689;84;21741;-38
2021/01/18 07:57:30;;;;;;;38.60;18.50;;;;;;;-13.96;60.19;100849.71;1724265;81;21167;-38
2021/01/18 08:00:27;;;;;;;37.57;16.27;;;;;;;-13.93;59.99;100852.82;1719406;81;21172;-38
2021/01/18 08:03:10;;;;;;;37.37;17.40;;;;;;;-13.98;60.16;100860.70;1721856;81;21175;-39
2021/01/18 08:05:40;;;;;;;37.57;17.57;;;;;;;-13.95;60.53;100860.43;1726766;81;21176;-37
2021/01/18 08:08:16;;;;;;;35.03;15.73;;;;;;;-13.91;60.36;100858.88;1726709;81;21184;-38
2021/01/18 08:11:06;;;;;;;38.50;18.97;;;;;;;-13.83;60.47;100861.41;1726660;81;21156;-38
2021/01/18 08:13:48;;;;;;;38.53;17.80;;;;;;;-13.70;60.82;100861.55;1724146;81;21140;-38
2021/01/18 08:16:22;;;;;;;43.77;20.77;;;;;;;-13.65;60.60;100860.48;1730930;81;21160;-38
2021/01/18 08:19:08;;;;;;;36.60;16.97;;;;;;;-13.62;61.05;100858.05;1722644;81;21318;-38
2021/01/18 08:21:47;;;;;;;39.23;17.90;;;;;;;-13.55;60.85;100852.39;1764118;79;23235;-38
2021/01/18 08:24:33;;;;;;;30.50;16.40;;;;;;;-13.59;60.72;100853.92;1747162;80;21138;-39
2021/01/18 08:27:08;;;;;;;32.97;16.00;;;;;;;-13.63;60.95;100860.13;1744715;80;21121;-37
2021/01/18 08:29:51;;;;;;;32.23;17.07;;;;;;;-13.58;61.26;100856.98;1749360;80;21575;-38
2021/01/18 08:32:37;;;;;;;39.23;16.40;;;;;;;-13.45;61.11;100854.55;1743114;80;21268;-38
2021/01/18 08:35:21;;;;;;;34.90;17.60;;;;;;;-13.44;61.09;100853.72;1741800;80;21279;-38
2021/01/18 08:38:06;;;;;;;32.63;16.67;;;;;;;-13.34;61.12;100855.00;1744078;80;21292;-40
2021/01/18 08:40:43;;;;;;;35.90;16.20;;;;;;;-13.34;61.49;100852.03;1714416;82;21307;-39
2021/01/18 08:43:15;;;;;;;36.40;17.00;;;;;;;-13.33;61.48;100855.47;1683306;83;21149;-40
2021/01/18 08:45:51;;;;;;;35.07;16.90;;;;;;;-13.32;61.47;100859.39;1704825;82;21152;-39
2021/01/18 08:48:27;;;;;;;37.90;17.10;;;;;;;-13.28;61.41;100867.22;1706149;82;21161;-40
2021/01/18 08:50:57;;;;;;;34.17;17.70;;;;;;;-13.33;62.18;100857.66;1710783;82;21172;-39
2021/01/18 08:53:43;;;;;;;31.07;16.00;;;;;;;-13.37;62.68;100860.02;1701117;82;21564;-38
2021/01/18 08:56:32;;;;;;;37.50;17.93;;;;;;;-13.40;62.83;100850.48;1708087;82;21753;-38
2021/01/18 08:59:00;;;;;;;34.17;15.43;;;;;;;-13.35;62.71;100842.99;1704200;82;21179;-39
2021/01/18 09:01:31;;;;;;;40.43;17.27;;;;;;;-13.37;62.08;100843.33;1703279;82;21173;-39
2021/01/18 09:04:07;;;;;;;30.47;16.10;;;;;;;-13.41;62.53;100842.71;1702170;82;21171;-39
2021/01/18 09:06:34;;;;;;;27.57;13.60;;;;;;;-13.47;63.85;100839.89;1704452;82;21711;-39
2021/01/18 09:09:05;;;;;;;24.90;13.67;;;;;;;-13.54;65.15;100842.58;1705679;82;21172;-39
2021/01/18 09:11:34;;;;;;;22.93;11.70;;;;;;;-13.51;65.48;100836.30;1707914;82;21457;-39
2021/01/18 09:14:02;;;;;;;26.93;12.13;;;;;;;-13.40;65.43;100835.50;1705928;82;21157;-39
2021/01/18 09:16:30;;;;;;;31.57;14.43;;;;;;;-13.32;63.81;100832.85;1674651;82;21616;-39
2021/01/18 09:19:05;;;;;;;25.47;11.10;;;;;;;-13.34;63.45;100828.92;1703636;82;21667;-39
2021/01/18 09:21:35;;;;;;;21.33;11.10;;;;;;;-13.34;63.63;100819.94;1729137;80;21308;-39
2021/01/18 09:24:08;;;;;;;25.57;10.93;;;;;;;-13.24;63.18;100813.89;1705617;81;21158;-39
2021/01/18 09:26:36;;;;;;;22.80;11.53;;;;;;;-13.15;63.82;100806.17;1718666;81;21523;-38
2021/01/18 09:29:03;;;;;;;27.07;11.33;;;;;;;-13.04;63.47;100808.31;1727095;81;21955;-39
2021/01/18 09:31:31;;;;;;;24.60;11.80;;;;;;;-12.96;61.78;100814.22;1725224;81;21186;-39
2021/01/18 09:34:10;;;;;;;28.10;12.27;;;;;;;-12.99;61.53;100802.95;1703359;81;21152;-38
2021/01/18 09:36:42;;;;;;;26.43;10.27;;;;;;;-13.15;61.53;100798.47;1730549;81;21150;-39
2021/01/18 09:39:21;;;;;;;19.67;10.20;;;;;;;-13.28;61.90;100805.61;1726226;81;21135;-36
2021/01/18 09:41:53;;;;;;;22.07;10.10;;;;;;;-13.30;62.23;100808.12;1695157;83;21107;-38
2021/01/18 09:44:20;;;;;;;22.03;10.47;;;;;;;-13.25;61.95;100805.70;1694982;83;21626;-38
2021/01/18 09:46:49;;;;;;;29.73;11.87;;;;;;;-13.26;62.44;100806.56;1695446;83;21170;-38
2021/01/18 09:52:00;;;;;;;26.90;10.50;;;;;;;-13.24;62.40;100790.78;1880621;74;22762;-38
2021/01/18 09:54:29;;;;;;;24.87;10.87;;;;;;;-13.23;62.57;100788.67;1812518;77;21148;-37
2021/01/18 09:56:56;;;;;;;42.03;13.47;;;;;;;-13.07;62.47;100795.81;1782640;78;21179;-38
2021/01/18 09:59:24;;;;;;;35.10;12.97;;;;;;;-12.89;62.03;100795.69;1776140;78;21119;-38
2021/01/18 10:01:53;;;;;;;25.20;10.63;;;;;;;-12.73;60.79;100792.45;1769807;78;22224;-37
2021/01/18 10:04:22;;;;;;;29.47;10.30;;;;;;;-12.66;60.39;100795.33;1804748;78;21593;-39
2021/01/18 10:06:50;;;;;;;20.83;11.00;;;;;;;-12.60;59.65;100792.11;1794402;78;21165;-38
2021/01/18 10:09:20;;;;;;;22.33;10.03;;;;;;;-12.53;59.78;100789.39;1769278;78;21180;-38
2021/01/18 10:11:49;;;;;;;26.77;10.60;;;;;;;-12.46;59.15;100803.83;1780199;78;21139;-38
2021/01/18 10:14:25;;;;;;;23.37;9.87;;;;;;;-12.42;58.52;100797.13;1807256;77;21130;-37
2021/01/18 10:17:09;;;;;;;23.17;9.53;;;;;;;-12.35;58.92;100796.94;1801368;77;21468;-38
2021/01/18 10:19:39;;;;;;;31.03;11.97;;;;;;;-12.24;58.90;100796.55;1784390;78;21217;-37
2021/01/18 10:22:19;;;;;;;20.33;9.50;;;;;;;-12.17;57.08;100802.78;1784634;78;21133;-38
2021/01/18 10:24:56;;;;;;;26.20;10.97;;;;;;;-12.17;57.62;100804.48;1823998;76;21327;-37
2021/01/18 10:27:27;;;;;;;23.10;11.80;;;;;;;-12.12;57.05;100806.82;1810164;77;21136;-38
2021/01/18 10:30:14;;;;;;;29.37;12.58;;;;;;;-12.14;57.03;100804.20;1810553;77;21124;-37
2021/01/18 10:32:45;;;;;;;26.07;10.70;;;;;;;-12.19;57.13;100798.02;1792813;78;21479;-38
2021/01/18 10:35:32;;;;;;;19.07;9.90;;;;;;;-12.17;56.88;100807.05;1796061;78;21178;-40
2021/01/18 10:38:14;;;;;;;27.07;12.47;;;;;;;-12.19;57.44;100804.45;1801743;78;21137;-38
2021/01/18 10:40:45;;;;;;;30.23;12.00;;;;;;;-12.10;57.21;100797.05;1793385;78;21121;-38
2021/01/18 10:43:13;;;;;;;31.85;12.82;;;;;;;-12.06;56.84;100796.37;1793905;77;21161;-38
2021/01/18 10:45:42;;;;;;;40.87;15.23;;;;;;;-12.02;56.55;100791.81;1787315;78;21701;-37
2021/01/18 10:48:10;;;;;;;27.47;12.47;;;;;;;-11.97;56.56;100792.38;1782664;78;21177;-37
2021/01/18 10:50:40;;;;;;;41.00;12.43;;;;;;;-11.93;56.65;100785.25;1758617;80;21122;-38
2021/01/18 10:53:11;;;;;;;30.87;13.27;;;;;;;-11.90;54.95;100782.36;1779757;79;21160;-36
2021/01/18 10:55:39;;;;;;;26.77;11.23;;;;;;;-12.01;55.67;100781.98;1778165;78;21152;-40
2021/01/18 10:58:08;;;;;;;26.30;14.17;;;;;;;-12.09;56.18;100780.83;1765874;79;21163;-38
2021/01/18 11:00:40;;;;;;;27.23;11.57;;;;;;;-12.11;57.02;100774.73;1785302;78;21229;-39
2021/01/18 11:03:06;;;;;;;27.70;11.43;;;;;;;-12.10;57.44;100778.18;1802302;78;21600;-38
2021/01/18 11:05:40;;;;;;;26.93;12.47;;;;;;;-12.02;57.34;100770.33;1795521;78;21149;-37
2021/01/18 11:08:09;;;;;;;34.37;14.63;;;;;;;-11.90;57.61;100768.63;1785496;78;21149;-38
2021/01/18 11:10:44;;;;;;;24.57;12.23;;;;;;;-11.82;56.96;100765.88;1788211;78;21168;-39
2021/01/18 11:13:18;;;;;;;23.03;11.53;;;;;;;-11.83;56.97;100761.16;1760590;80;21145;-40
2021/01/18 11:15:49;;;;;;;19.57;9.90;;;;;;;-11.82;57.23;100767.17;1781443;79;21157;-39
2021/01/18 11:18:22;;;;;;;22.60;10.97;;;;;;;-11.71;57.16;100765.87;1783634;79;21995;-38
2021/01/18 11:20:53;;;;;;;21.33;10.37;;;;;;;-11.59;57.14;100762.45;1786687;78;21696;-36
2021/01/18 11:23:21;;;;;;;24.03;11.30;;;;;;;-11.49;56.92;100762.76;1762440;78;21659;-39
2021/01/18 11:25:49;;;;;;;21.03;9.57;;;;;;;-11.45;56.28;100765.50;1796029;78;21117;-38
2021/01/18 11:28:17;;;;;;;28.47;14.50;;;;;;;-11.42;56.39;100772.45;1765996;80;21110;-39
2021/01/18 11:30:45;;;;;;;43.37;19.33;;;;;;;-11.31;56.31;100765.99;1785667;78;21927;-39
2021/01/18 11:33:13;;;;;;;33.70;15.90;;;;;;;-11.25;56.35;100768.77;1788916;78;21184;-38
2021/01/18 11:35:43;;;;;;;27.23;12.17;;;;;;;-11.19;56.24;100771.95;1783691;78;21678;-39